Time;durP1;ratioP1;P1;durP2;ratioP2;P2;SDS_P1;SDS_P2;PMS_P1;PMS_P2;Temp;Humidity;BMP_temperature;BMP_pressure;BME280_temperature;BME280_humidity;BME280_pressure;Samples;Min_cycle;Max_cycle;Signal;HPM_P1;HPM_P2
2022/01/04 00:00:34;;;;;;;3.92;1.40;;;;;;;8.90;80.29;98948.31;6212989;23;20034;-79
2022/01/04 00:03:20;;;;;;;10.63;2.08;;;;;;;8.91;80.37;98956.22;6220204;23;20004;-79
2022/01/04 00:05:45;;;;;;;3.25;1.58;;;;;;;8.91;80.80;98950.75;6220398;23;20011;-79
2022/01/04 00:08:13;;;;;;;8.27;1.63;;;;;;;8.91;80.39;98939.84;6191993;23;20040;-77
2022/01/04 00:10:38;;;;;;;5.63;1.58;;;;;;;8.91;80.68;98937.13;6217779;23;20012;-77
2022/01/04 00:13:25;;;;;;;4.43;1.50;;;;;;;8.91;80.23;98931.69;6215428;23;20004;-78
2022/01/04 00:15:56;;;;;;;6.95;1.40;;;;;;;8.94;81.10;98932.22;6191447;23;20023;-77
2022/01/04 00:18:23;;;;;;;8.52;2.05;;;;;;;8.90;80.84;98927.31;6210575;23;20008;-76
2022/01/04 00:20:49;;;;;;;9.15;1.40;;;;;;;8.91;80.89;98922.69;6213555;23;20091;-76
2022/01/04 00:23:22;;;;;;;2.78;1.23;;;;;;;8.90;80.73;98916.41;6194201;23;20004;-79
2022/01/04 00:25:57;;;;;;;1.80;0.98;;;;;;;8.87;80.90;98908.81;6219204;23;20009;-79
2022/01/04 00:28:27;;;;;;;2.35;0.93;;;;;;;8.73;81.05;98886.09;6218618;23;20022;-78
2022/01/04 00:30:55;;;;;;;1.50;0.77;;;;;;;8.82;81.21;98900.72;6223415;23;20012;-79
2022/01/04 00:33:30;;;;;;;7.30;1.05;;;;;;;8.86;81.61;98903.66;6224418;23;20011;-77
2022/01/04 00:36:05;;;;;;;;;;;;;;;;;;;;;
2022/01/04 00:38:31;;;;;;;2.55;0.90;;;;;;;8.74;80.95;98874.09;6215317;23;20618;-72
2022/01/04 00:40:57;;;;;;;3.50;1.10;;;;;;;8.90;80.88;98894.59;6209936;23;20024;-77
2022/01/04 00:43:50;;;;;;;;;;;;;;;;;;;;;
2022/01/04 00:46:23;;;;;;;1.90;1.02;;;;;;;8.89;80.96;98887.56;6214143;23;20088;-76
2022/01/04 00:51:33;;;;;;;9.57;1.45;;;;;;;8.79;80.76;98860.44;6212810;23;20079;-77
2022/01/04 00:53:58;;;;;;;7.55;1.17;;;;;;;8.83;80.86;98877.78;6213288;23;20412;-77
2022/01/04 00:56:24;;;;;;;8.70;1.67;;;;;;;8.84;81.35;98879.44;6212777;23;20331;-75
2022/01/04 00:58:52;;;;;;;9.02;1.25;;;;;;;8.83;81.53;98866.88;6210337;23;20004;-75
2022/01/04 01:01:18;;;;;;;7.25;1.92;;;;;;;8.81;81.18;98846.50;6213913;23;20009;-78
2022/01/04 01:03:43;;;;;;;5.45;1.38;;;;;;;8.81;81.11;98839.13;6210424;23;20368;-77
2022/01/04 01:06:09;;;;;;;3.85;0.70;;;;;;;8.86;80.93;98836.34;6211949;23;20372;-76
2022/01/04 01:08:37;;;;;;;3.83;1.40;;;;;;;8.91;81.01;98839.00;6207518;23;20075;-76
2022/01/04 01:11:14;;;;;;;;;;;;;;;;;;;;;
2022/01/04 01:13:49;;;;;;;1.70;0.77;;;;;;;8.88;81.13;98819.69;6206557;23;20084;-76
2022/01/04 01:16:22;;;;;;;9.10;1.70;;;;;;;8.84;81.61;98808.56;6213773;23;20000;-79
2022/01/04 01:19:05;;;;;;;;;;;;;;;;;;;;;
2022/01/04 01:21:31;;;;;;;10.20;1.67;;;;;;;8.85;81.18;98806.66;6212972;23;20384;-78
2022/01/04 01:24:06;;;;;;;4.97;1.45;;;;;;;8.94;81.15;98817.72;6212086;23;20028;-77
2022/01/04 01:26:33;;;;;;;7.68;1.80;;;;;;;8.98;80.98;98802.34;6211970;23;20008;-76
2022/01/04 01:29:01;;;;;;;10.05;1.80;;;;;;;8.83;80.73;98781.59;6210902;23;20323;-78
2022/01/04 01:31:28;;;;;;;4.43;1.23;;;;;;;8.91;80.95;98792.66;6212179;23;20064;-77
2022/01/04 01:33:53;;;;;;;7.53;1.52;;;;;;;8.85;81.03;98782.94;6184102;22;20108;-76
2022/01/04 01:36:27;;;;;;;5.45;1.55;;;;;;;8.87;81.05;98780.69;6209524;23;20098;-77
2022/01/04 01:39:18;;;;;;;7.68;0.90;;;;;;;8.77;80.76;98761.78;6212869;23;20000;-77
2022/01/04 01:41:43;;;;;;;7.38;1.27;;;;;;;8.70;80.98;98764.88;6198084;23;20058;-76
2022/01/04 01:44:12;;;;;;;5.70;1.92;;;;;;;8.82;80.69;98786.25;6212578;23;20363;-76
2022/01/04 01:46:39;;;;;;;6.55;0.98;;;;;;;8.78;81.20;98770.78;6211670;23;20011;-76
2022/01/04 01:49:05;;;;;;;2.45;0.90;;;;;;;8.84;80.91;98778.56;6208475;23;20059;-76
2022/01/04 01:51:33;;;;;;;2.15;0.75;;;;;;;8.81;81.15;98768.25;6182773;23;20407;-75
2022/01/04 01:53:59;;;;;;;2.42;0.73;;;;;;;8.80;80.83;98755.72;6211395;23;20419;-76
2022/01/04 01:56:29;;;;;;;3.50;0.75;;;;;;;8.82;81.14;98749.97;6206331;23;20075;-76
2022/01/04 01:58:56;;;;;;;3.53;1.13;;;;;;;8.88;81.14;98765.19;6156482;23;20024;-75
2022/01/04 02:01:24;;;;;;;6.35;1.15;;;;;;;8.83;80.79;98763.31;6212627;23;20489;-76
2022/01/04 02:03:57;;;;;;;1.23;0.60;;;;;;;8.80;80.94;98749.47;6209089;23;20035;-75
2022/01/04 02:06:38;;;;;;;1.50;0.52;;;;;;;8.89;80.97;98767.59;6214059;23;20099;-76
2022/01/04 02:09:32;;;;;;;3.28;1.58;;;;;;;8.84;80.64;98767.66;6227909;23;20004;-75
2022/01/04 02:12:49;;;;;;;3.60;1.55;;;;;;;8.82;80.68;98758.16;6223278;23;20054;-75
2022/01/04 02:15:21;;;;;;;4.68;1.40;;;;;;;8.69;81.15;98729.75;6209803;23;20000;-76
2022/01/04 02:17:47;;;;;;;2.72;1.08;;;;;;;8.67;80.24;98737.38;6218988;23;20031;-73
2022/01/04 02:20:19;;;;;;;5.28;1.77;;;;;;;8.64;80.39;98740.72;6210636;23;20004;-74
2022/01/04 02:22:54;;;;;;;3.17;1.50;;;;;;;8.62;80.77;98745.66;6211124;23;20011;-74
2022/01/04 02:25:19;;;;;;;4.38;1.17;;;;;;;8.64;80.76;98743.44;6211217;23;20092;-73
2022/01/04 02:27:48;;;;;;;2.97;0.90;;;;;;;8.53;80.28;98738.13;6212556;23;20367;-73
2022/01/04 02:30:16;;;;;;;8.18;1.90;;;;;;;8.54;80.86;98742.47;6208739;23;20011;-75
2022/01/04 02:32:59;;;;;;;;;;;;;;;;;;;;;
2022/01/04 02:35:35;;;;;;;19.10;2.10;;;;;;;8.42;80.53;98739.34;6209514;22;20073;-74
2022/01/04 02:38:04;;;;;;;7.88;1.60;;;;;;;8.43;80.28;98738.25;6211612;23;20107;-75
2022/01/04 02:40:31;;;;;;;4.35;1.33;;;;;;;8.27;79.92;98717.75;6211222;23;20004;-76
2022/01/04 02:42:57;;;;;;;1.67;0.70;;;;;;;8.26;80.55;98727.81;6160928;23;20012;-75
2022/01/04 02:45:23;;;;;;;6.57;1.50;;;;;;;8.21;80.81;98720.53;6210677;23;20335;-75
2022/01/04 02:47:58;;;;;;;1.60;1.17;;;;;;;8.20;80.40;98723.56;6209769;23;20012;-75
2022/01/04 02:50:28;;;;;;;2.88;1.20;;;;;;;8.10;80.74;98713.59;6209397;23;20011;-74
2022/01/04 02:52:57;;;;;;;7.85;1.63;;;;;;;8.20;80.82;98746.13;6211447;23;20004;-74
2022/01/04 02:55:23;;;;;;;8.10;2.03;;;;;;;8.11;81.24;98715.22;6212926;23;20334;-73
2022/01/04 02:57:50;;;;;;;4.82;1.67;;;;;;;8.14;81.08;98701.03;6213327;23;20005;-74
2022/01/04 03:00:17;;;;;;;5.35;1.55;;;;;;;8.21;81.20;98697.94;6212181;23;20079;-73
2022/01/04 03:02:45;;;;;;;5.47;1.40;;;;;;;8.24;81.01;98702.00;6213267;23;20009;-73
2022/01/04 03:05:11;;;;;;;3.78;1.63;;;;;;;8.23;80.84;98684.03;6186282;23;20031;-74
2022/01/04 03:07:37;;;;;;;9.43;1.75;;;;;;;8.26;80.39;98686.19;6208306;23;20008;-73
2022/01/04 03:10:05;;;;;;;3.60;1.10;;;;;;;8.33;80.89;98702.97;6211280;23;19999;-74
2022/01/04 03:12:34;;;;;;;3.75;1.40;;;;;;;8.34;80.92;98699.16;6212951;23;20004;-74
2022/01/04 03:15:00;;;;;;;4.70;1.23;;;;;;;8.42;80.71;98711.28;6187612;23;20012;-74
2022/01/04 03:17:28;;;;;;;4.53;1.63;;;;;;;8.40;80.76;98700.69;6213965;23;20017;-74
2022/01/04 03:19:54;;;;;;;5.68;1.52;;;;;;;8.39;80.76;98705.31;6214877;23;20149;-73
2022/01/04 03:22:20;;;;;;;6.20;1.48;;;;;;;8.40;80.71;98692.53;6170587;23;19993;-73
2022/01/04 03:24:53;;;;;;;8.48;1.88;;;;;;;8.43;80.82;98699.31;6214640;23;20008;-73
2022/01/04 03:27:21;;;;;;;16.98;2.13;;;;;;;8.40;80.48;98706.13;6214217;23;20023;-74
2022/01/04 03:29:49;;;;;;;11.07;1.38;;;;;;;8.46;80.90;98713.16;6214588;23;20051;-75
2022/01/04 03:32:16;;;;;;;15.20;2.42;;;;;;;8.43;80.43;98707.47;6212131;23;20027;-75
2022/01/04 03:34:42;;;;;;;9.20;1.85;;;;;;;8.39;80.48;98705.31;6211489;23;20052;-73
2022/01/04 03:37:07;;;;;;;6.55;1.50;;;;;;;8.38;80.74;98698.25;6212460;23;20008;-73
2022/01/04 03:39:40;;;;;;;4.35;1.05;;;;;;;8.44;80.50;98693.59;6213715;23;20027;-74
2022/01/04 03:42:06;;;;;;;4.82;0.70;;;;;;;8.39;80.63;98678.06;6162710;23;20016;-74
2022/01/04 03:44:32;;;;;;;4.00;0.60;;;;;;;8.47;80.44;98693.00;6212577;23;20008;-75
2022/01/04 03:46:58;;;;;;;3.83;0.55;;;;;;;8.40;80.59;98689.78;6215256;23;20032;-75
2022/01/04 03:49:23;;;;;;;0.32;0.30;;;;;;;8.39;80.38;98688.16;6208775;23;20051;-74
2022/01/04 03:51:52;;;;;;;2.08;0.60;;;;;;;8.43;80.43;98672.88;6213111;23;19996;-75
2022/01/04 03:54:19;;;;;;;0.65;0.32;;;;;;;8.41;80.65;98669.63;6214434;23;20008;-73
2022/01/04 03:56:45;;;;;;;1.58;0.43;;;;;;;8.40;80.64;98662.56;6208578;23;20011;-75
2022/01/04 03:59:10;;;;;;;0.60;0.50;;;;;;;8.42;80.44;98660.34;6213097;23;20015;-75
2022/01/04 04:01:36;;;;;;;0.40;0.40;;;;;;;8.42;80.46;98649.44;6217349;23;20017;-74
2022/01/04 04:04:11;;;;;;;1.33;0.52;;;;;;;8.37;80.27;98641.38;6228735;23;20005;-74
2022/01/04 04:06:37;;;;;;;5.90;1.23;;;;;;;8.39;80.15;98653.56;6233502;23;20032;-75
2022/01/04 04:09:02;;;;;;;2.20;0.68;;;;;;;8.37;80.01;98649.53;6229906;23;20012;-73
2022/01/04 04:11:31;;;;;;;5.70;0.93;;;;;;;8.33;79.93;98645.78;6186618;23;20095;-75
2022/01/04 04:14:04;;;;;;;0.60;0.40;;;;;;;8.38;80.30;98648.41;6214435;23;20024;-75
2022/01/04 04:16:33;;;;;;;1.10;0.70;;;;;;;8.39;79.86;98658.22;6185873;23;20015;-74
2022/01/04 04:19:05;;;;;;;1.88;0.77;;;;;;;8.35;79.92;98654.44;6203310;23;20019;-73
2022/01/04 04:21:39;;;;;;;4.93;0.85;;;;;;;8.40;79.92;98668.00;6233887;23;20013;-74
2022/01/04 04:24:05;;;;;;;2.13;0.65;;;;;;;8.38;80.16;98668.31;6215366;23;20012;-74
2022/01/04 04:26:30;;;;;;;2.17;0.20;;;;;;;8.31;79.79;98659.69;6236301;23;20056;-74
2022/01/04 04:28:56;;;;;;;1.30;0.50;;;;;;;8.38;79.86;98671.03;6209894;23;20005;-74
2022/01/04 04:31:21;;;;;;;2.05;0.52;;;;;;;8.38;80.25;98681.09;6201522;23;20039;-74
2022/01/04 04:33:54;;;;;;;0.80;0.65;;;;;;;8.34;80.12;98677.38;6213263;23;20409;-74
2022/01/04 04:36:29;;;;;;;5.72;0.77;;;;;;;8.33;80.41;98662.13;6212593;23;20083;-74
2022/01/04 04:38:55;;;;;;;8.85;1.40;;;;;;;8.31;80.04;98643.34;6208284;23;20008;-73
2022/01/04 04:41:20;;;;;;;2.15;1.45;;;;;;;8.27;80.30;98633.34;6181073;23;20009;-74
2022/01/04 04:43:46;;;;;;;3.42;0.77;;;;;;;8.34;80.10;98641.97;6185238;23;20154;-74
2022/01/04 04:46:12;;;;;;;6.82;1.90;;;;;;;8.29;80.31;98639.28;6208160;23;20018;-74
2022/01/04 04:48:37;;;;;;;12.70;1.70;;;;;;;8.26;79.98;98642.59;6211739;23;20012;-74
2022/01/04 04:51:03;;;;;;;20.60;1.83;;;;;;;8.19;80.58;98632.06;6209871;23;20040;-74
2022/01/04 04:53:28;;;;;;;15.95;1.85;;;;;;;8.19;80.32;98635.63;6210244;23;20005;-73
2022/01/04 04:55:57;;;;;;;7.88;1.38;;;;;;;8.15;80.83;98623.69;6207505;23;20068;-74
2022/01/04 04:58:23;;;;;;;4.47;1.10;;;;;;;8.15;80.66;98612.00;6209380;23;20142;-74
2022/01/04 05:00:48;;;;;;;4.70;1.20;;;;;;;8.10;80.36;98604.69;6185393;23;20088;-74
2022/01/04 05:03:13;;;;;;;10.40;1.63;;;;;;;8.10;81.00;98604.69;6207175;23;20008;-74
2022/01/04 05:05:39;;;;;;;6.25;1.73;;;;;;;8.07;81.09;98599.03;6213123;23;20008;-74
2022/01/04 05:08:04;;;;;;;13.25;1.77;;;;;;;8.02;81.05;98603.44;6182792;23;20008;-75
2022/01/04 05:10:31;;;;;;;12.93;1.60;;;;;;;8.04;80.92;98606.72;6211709;23;20415;-74
2022/01/04 05:12:57;;;;;;;6.18;1.33;;;;;;;8.03;80.90;98609.69;6212418;23;20031;-73
2022/01/04 05:15:22;;;;;;;6.68;1.60;;;;;;;7.98;81.50;98607.84;6205833;23;20009;-74
2022/01/04 05:17:48;;;;;;;6.22;2.03;;;;;;;7.94;81.14;98600.56;6221217;23;20023;-74
2022/01/04 05:20:13;;;;;;;3.50;1.10;;;;;;;7.94;81.14;98593.22;6226673;23;20039;-74
2022/01/04 05:22:39;;;;;;;17.75;1.35;;;;;;;7.94;81.04;98585.03;6225990;23;20039;-74
2022/01/04 05:25:11;;;;;;;3.50;1.15;;;;;;;7.92;81.33;98586.47;6227595;23;20008;-73
2022/01/04 05:27:36;;;;;;;5.22;0.95;;;;;;;7.96;81.42;98592.94;6210205;23;20004;-75
2022/01/04 05:30:02;;;;;;;1.23;0.60;;;;;;;7.94;81.25;98576.06;6207770;23;20008;-74
2022/01/04 05:32:28;;;;;;;1.52;0.70;;;;;;;7.97;81.09;98570.88;6186642;23;20024;-74
2022/01/04 05:34:53;;;;;;;4.35;0.40;;;;;;;7.99;81.18;98592.34;6205196;23;20451;-74
2022/01/04 05:37:21;;;;;;;1.38;0.38;;;;;;;7.97;81.03;98572.75;6212605;23;20493;-74
2022/01/04 05:39:46;;;;;;;0.77;0.20;;;;;;;7.97;81.44;98572.75;6210003;23;20381;-74
2022/01/04 05:42:12;;;;;;;0.40;0.20;;;;;;;7.99;81.22;98571.38;6208691;23;20079;-73
2022/01/04 05:44:38;;;;;;;0.68;0.35;;;;;;;7.99;81.30;98579.53;6208949;23;20439;-74
2022/01/04 05:47:05;;;;;;;0.32;0.20;;;;;;;8.01;81.08;98568.34;6211659;23;20030;-75
2022/01/04 05:49:30;;;;;;;0.10;0.10;;;;;;;8.02;80.96;98591.75;6209676;23;20008;-75
2022/01/04 05:51:56;;;;;;;0.63;0.35;;;;;;;8.01;81.06;98573.81;6205846;23;20015;-73
2022/01/04 05:54:21;;;;;;;3.95;0.20;;;;;;;7.96;81.03;98557.56;6210073;23;20108;-74
2022/01/04 05:56:47;;;;;;;0.30;0.17;;;;;;;7.98;81.09;98561.59;6210428;23;20026;-74
2022/01/04 05:59:12;;;;;;;1.05;0.43;;;;;;;7.94;80.91;98563.25;6206078;23;20339;-73
2022/01/04 06:01:38;;;;;;;0.63;0.47;;;;;;;7.95;81.01;98559.44;6184407;23;20081;-74
2022/01/04 06:04:04;;;;;;;4.82;1.10;;;;;;;7.93;81.06;98548.06;6208808;23;20008;-73
2022/01/04 06:06:29;;;;;;;8.27;1.55;;;;;;;7.90;80.97;98545.09;6209471;23;20423;-73
2022/01/04 06:08:55;;;;;;;7.18;0.70;;;;;;;7.94;81.10;98551.59;6211456;23;20001;-72
2022/01/04 06:16:48;;;;;;;8.23;0.80;;;;;;;7.93;80.64;98545.34;6207284;23;20368;-73
2022/01/04 06:19:14;;;;;;;3.95;1.38;;;;;;;7.93;81.01;98553.50;6160472;23;20009;-73
2022/01/04 06:21:39;;;;;;;1.70;0.65;;;;;;;7.89;80.98;98551.66;6208517;23;20047;-73
2022/01/04 06:24:05;;;;;;;3.30;0.77;;;;;;;7.90;81.25;98551.38;6211894;23;20059;-74
2022/01/04 06:26:30;;;;;;;2.30;0.40;;;;;;;7.90;80.84;98554.09;6207543;23;20332;-73
2022/01/04 06:28:56;;;;;;;1.25;0.60;;;;;;;7.89;80.81;98555.19;6207748;23;20005;-73
2022/01/04 06:31:24;;;;;;;1.27;0.70;;;;;;;7.91;81.52;98552.97;6207699;23;20014;-74
2022/01/04 06:33:50;;;;;;;4.47;0.77;;;;;;;7.98;81.39;98568.94;6211419;23;20000;-74
2022/01/04 06:36:18;;;;;;;5.68;0.47;;;;;;;8.07;80.91;98572.63;6186217;23;20008;-73
2022/01/04 06:38:43;;;;;;;1.33;0.50;;;;;;;8.14;80.76;98583.94;6209631;23;20008;-74
2022/01/04 06:41:11;;;;;;;0.73;0.40;;;;;;;8.14;80.49;98586.66;6208324;23;20008;-74
2022/01/04 06:43:39;;;;;;;1.25;0.47;;;;;;;8.15;80.65;98590.22;6183118;23;20012;-74
2022/01/04 06:46:04;;;;;;;0.47;0.20;;;;;;;8.12;80.84;98588.88;6186589;23;20028;-72
2022/01/04 06:48:30;;;;;;;1.40;0.47;;;;;;;8.03;80.26;98577.03;6213336;23;20008;-72
2022/01/04 06:51:04;;;;;;;5.30;0.50;;;;;;;7.89;80.45;98565.28;6211644;23;20087;-73
2022/01/04 06:53:33;;;;;;;0.60;0.25;;;;;;;7.84;80.25;98577.84;6211079;23;20009;-74
2022/01/04 06:56:00;;;;;;;0.15;0.15;;;;;;;7.72;80.14;98574.72;6213343;23;20486;-75
2022/01/04 06:58:26;;;;;;;0.35;0.35;;;;;;;7.69;80.55;98575.31;6208814;23;20008;-75
2022/01/04 07:00:51;;;;;;;0.45;0.10;;;;;;;7.65;80.52;98574.28;6210324;23;20009;-74
2022/01/04 07:03:17;;;;;;;1.77;0.43;;;;;;;7.66;81.20;98582.16;6210142;23;20099;-73
2022/01/04 07:05:43;;;;;;;1.95;0.40;;;;;;;7.71;80.75;98567.69;6211343;23;20332;-72
2022/01/04 07:08:11;;;;;;;3.13;0.75;;;;;;;7.75;80.96;98563.25;6211667;23;20064;-72
2022/01/04 07:10:36;;;;;;;1.42;0.70;;;;;;;7.83;81.38;98570.78;6187164;23;20004;-73
2022/01/04 07:13:08;;;;;;;5.82;0.60;;;;;;;7.84;81.33;98564.25;6209835;23;20087;-71
2022/01/04 07:15:33;;;;;;;2.13;0.50;;;;;;;7.89;80.66;98565.28;6212131;23;20012;-71
2022/01/04 07:17:59;;;;;;;1.75;0.47;;;;;;;7.91;80.71;98563.06;6210812;23;20013;-71
2022/01/04 07:20:24;;;;;;;1.00;0.13;;;;;;;7.93;80.42;98560.84;6210562;23;20410;-69
2022/01/04 07:22:53;;;;;;;1.55;0.30;;;;;;;7.89;80.30;98554.41;6211749;23;20592;-72
2022/01/04 07:25:24;;;;;;;1.73;0.30;;;;;;;7.82;80.09;98543.88;6213424;23;20008;-73
2022/01/04 07:27:49;;;;;;;0.77;0.55;;;;;;;7.83;80.13;98557.16;6211618;23;20364;-73
2022/01/04 07:30:18;;;;;;;0.57;0.32;;;;;;;7.71;79.87;98554.09;6210695;23;20028;-74
2022/01/04 07:32:52;;;;;;;0.60;0.25;;;;;;;7.62;80.14;98558.53;6212288;23;20359;-75
2022/01/04 07:35:25;;;;;;;7.13;0.70;;;;;;;7.41;80.11;98550.66;6213488;22;20024;-74
2022/01/04 07:37:51;;;;;;;0.60;0.40;;;;;;;7.45;79.94;98573.44;6210589;23;20005;-75
2022/01/04 07:40:20;;;;;;;1.30;0.50;;;;;;;7.27;80.35;98560.59;6208513;23;20017;-75
2022/01/04 07:42:46;;;;;;;0.35;0.15;;;;;;;7.24;80.63;98561.19;6209602;23;20004;-75
2022/01/04 07:45:14;;;;;;;0.40;0.20;;;;;;;7.23;80.33;98559.56;6212622;23;20004;-74
2022/01/04 07:47:44;;;;;;;0.70;0.50;;;;;;;7.19;81.03;98558.53;6187441;23;20051;-73
2022/01/04 07:50:19;;;;;;;1.80;0.52;;;;;;;7.22;80.70;98563.38;6210773;23;19997;-74
2022/01/04 07:52:44;;;;;;;2.10;0.20;;;;;;;7.42;80.79;98587.63;6210804;23;20005;-74
2022/01/04 07:55:10;;;;;;;1.88;0.50;;;;;;;7.38;80.69;98570.25;6185632;23;20465;-74
2022/01/04 07:57:36;;;;;;;1.20;0.50;;;;;;;7.50;80.92;98575.28;6212363;23;20005;-74
2022/01/04 08:00:08;;;;;;;0.43;0.20;;;;;;;7.70;80.83;98590.56;6205392;23;20001;-74
2022/01/04 08:03:14;;;;;;;3.15;0.50;;;;;;;7.64;80.87;98575.41;6209983;23;20275;-74
2022/01/04 08:05:47;;;;;;;2.63;1.17;;;;;;;7.77;80.92;98580.13;6200503;23;20017;-73
2022/01/04 08:08:15;;;;;;;1.75;0.30;;;;;;;7.86;80.93;98583.78;6212341;23;20005;-74
2022/01/04 08:10:46;;;;;;;0.65;0.20;;;;;;;7.96;80.74;98592.94;6210790;23;20008;-78
2022/01/04 08:13:17;;;;;;;0.80;0.40;;;;;;;7.95;80.51;98594.03;6211125;23;20004;-77
2022/01/04 08:15:43;;;;;;;3.88;0.70;;;;;;;8.00;80.51;98602.13;6210874;23;20009;-74
2022/01/04 08:18:08;;;;;;;1.67;0.30;;;;;;;7.89;80.82;98595.22;6212148;23;20368;-78
2022/01/04 08:20:34;;;;;;;2.25;1.45;;;;;;;7.88;80.71;98605.28;6212773;23;20016;-76
2022/01/04 08:23:01;;;;;;;4.45;0.65;;;;;;;7.93;80.51;98607.94;6212781;23;20005;-73
2022/01/04 08:25:27;;;;;;;1.13;0.40;;;;;;;7.91;80.69;98596.53;6212801;23;20087;-73
2022/01/04 08:28:11;;;;;;;;;;;;;;;;;;;;;
2022/01/04 08:30:47;;;;;;;7.95;0.85;;;;;;;7.89;80.18;98600.66;6212493;23;20083;-72
2022/01/04 08:33:42;;;;;;;6.03;0.85;;;;;;;7.93;80.06;98604.38;6206516;23;20008;-73
2022/01/04 08:36:10;;;;;;;3.00;0.68;;;;;;;7.94;80.08;98592.41;6212304;22;20020;-73
2022/01/04 08:39:14;;;;;;;;;;;;;;;;;;;;;
2022/01/04 08:41:41;;;;;;;4.53;0.63;;;;;;;7.94;79.92;98593.22;6211494;23;20080;-73
2022/01/04 08:44:10;;;;;;;6.63;0.60;;;;;;;8.00;79.61;98602.13;6209906;23;20004;-73
2022/01/04 08:46:36;;;;;;;0.65;0.35;;;;;;;7.98;80.05;98613.31;6208545;23;20066;-74
2022/01/04 08:49:07;;;;;;;0.60;0.13;;;;;;;8.04;80.01;98644.00;6208800;23;20013;-74
2022/01/04 08:51:33;;;;;;;0.45;0.38;;;;;;;7.91;80.26;98615.56;6206828;23;20004;-73
2022/01/04 08:54:16;;;;;;;0.75;0.60;;;;;;;7.93;79.69;98631.59;6210603;23;20015;-75
2022/01/04 08:56:42;;;;;;;0.73;0.73;;;;;;;7.91;80.16;98629.19;6207266;23;20009;-73
2022/01/04 08:59:08;;;;;;;0.40;0.40;;;;;;;7.92;80.00;98646.34;6210077;23;20139;-74
2022/01/04 09:05:27;;;;;;;0.70;0.70;;;;;;;7.55;79.49;98620.66;6117963;23;20037;-74
2022/01/04 09:07:52;;;;;;;0.63;0.63;;;;;;;7.61;79.55;98641.28;6191482;23;20004;-73
2022/01/04 09:10:18;;;;;;;1.33;0.75;;;;;;;7.41;79.65;98632.22;6205204;23;20008;-73
2022/01/04 09:12:54;;;;;;;0.93;0.93;;;;;;;7.27;79.40;98631.28;6212832;23;20001;-74
2022/01/04 09:20:54;;;;;;;0.50;0.50;;;;;;;7.01;79.56;98666.91;6211923;23;20035;-74
2022/01/04 09:23:27;;;;;;;0.50;0.50;;;;;;;6.94;79.85;98677.28;6210277;23;20008;-74
2022/01/04 09:25:53;;;;;;;0.20;0.20;;;;;;;6.76;79.93;98687.75;6213531;23;20594;-74
2022/01/04 09:28:21;;;;;;;0.30;0.20;;;;;;;6.77;79.36;98713.78;6213059;23;19996;-75
2022/01/04 09:30:50;;;;;;;0.20;0.20;;;;;;;6.56;78.68;98710.41;6211338;23;20059;-74
2022/01/04 09:33:43;;;;;;;0.28;0.10;;;;;;;6.51;78.53;98715.88;6213118;23;20001;-75
2022/01/04 09:36:44;;;;;;;;;;;;;;;;;;;;;
2022/01/04 09:39:18;;;;;;;0.10;0.10;;;;;;;6.16;77.63;98714.16;6213604;23;20080;-74
2022/01/04 09:42:05;;;;;;;0.20;0.20;;;;;;;6.10;77.09;98741.34;6210221;23;20134;-75
2022/01/04 09:44:40;;;;;;;0.10;0.10;;;;;;;5.91;76.82;98753.84;6211829;23;20015;-75
2022/01/04 09:47:05;;;;;;;0.05;0.05;;;;;;;5.76;75.64;98766.34;6214500;23;20012;-74
2022/01/04 09:49:34;;;;;;;0.00;0.00;;;;;;;5.67;76.13;98781.56;6212660;23;20001;-74
2022/01/04 09:52:15;;;;;;;;;;;;;;;;;;;;;
2022/01/04 09:54:52;;;;;;;0.00;0.00;;;;;;;5.72;75.73;98795.13;6213315;22;20080;-75
2022/01/04 09:57:26;;;;;;;0.00;0.00;;;;;;;5.77;74.94;98813.31;6208018;23;20119;-75
2022/01/04 09:59:52;;;;;;;0.00;0.00;;;;;;;5.68;75.33;98821.19;6189259;23;20396;-75
2022/01/04 10:02:35;;;;;;;;;;;;;;;;;;;;;
2022/01/04 10:05:30;;;;;;;0.00;0.00;;;;;;;5.64;75.07;98833.66;6214544;23;20087;-75
2022/01/04 10:08:23;;;;;;;0.10;0.10;;;;;;;5.49;74.83;98828.22;6167897;23;20379;-75
2022/01/04 10:11:11;;;;;;;;;;;;;;;;;;;;;
2022/01/04 10:13:59;;;;;;;0.08;0.08;;;;;;;5.41;73.84;98848.56;6214430;23;20064;-75
2022/01/04 10:19:25;;;;;;;;;;;;;;;5.54;73.25;98901.44;6212916;23;20043;-75
2022/01/04 10:22:31;;;;;;;0.40;0.00;;;;;;;5.40;72.71;98918.25;6233890;23;19908;-75
2022/01/04 10:25:03;;;;;;;0.30;0.10;;;;;;;5.27;72.67;98909.81;6233897;23;20004;-75
2022/01/04 10:27:32;;;;;;;0.20;0.10;;;;;;;5.24;71.99;98908.44;6222266;23;20054;-75
2022/01/04 10:30:23;;;;;;;0.03;0.00;;;;;;;5.28;73.01;98922.28;6226868;23;20068;-76
2022/01/04 10:33:10;;;;;;;0.10;0.10;;;;;;;5.21;72.04;98915.22;6221997;23;20040;-74
2022/01/04 10:35:48;;;;;;;0.00;0.00;;;;;;;5.29;71.21;98932.84;6215878;23;20051;-75
2022/01/04 10:38:32;;;;;;;;;;;;;;;;;;;;;
2022/01/04 10:41:04;;;;;;;0.10;0.10;;;;;;;5.20;71.73;98923.63;6214580;23;20076;-74
2022/01/04 10:43:37;;;;;;;0.10;0.10;;;;;;;5.18;71.51;98925.78;6221970;23;20011;-76
2022/01/04 10:46:15;;;;;;;0.35;0.13;;;;;;;5.30;70.90;98929.06;6221554;23;20013;-75
2022/01/04 10:48:45;;;;;;;0.10;0.10;;;;;;;5.37;71.23;98948.59;6230038;23;19996;-75
2022/01/04 10:51:28;;;;;;;;;;;;;;;;;;;;;
2022/01/04 10:54:18;;;;;;;0.03;0.03;;;;;;;5.57;70.76;98955.94;6229589;23;20008;-75
2022/01/04 10:56:46;;;;;;;0.20;0.10;;;;;;;5.61;69.61;98961.66;6209799;23;20000;-76
2022/01/04 10:59:12;;;;;;;0.10;0.10;;;;;;;5.72;69.05;98971.44;6225449;23;20001;-76
2022/01/04 11:01:50;;;;;;;0.25;0.10;;;;;;;5.65;68.63;98943.78;6209345;23;20434;-76
2022/01/04 11:04:17;;;;;;;0.10;0.10;;;;;;;5.79;68.43;98951.38;6215544;23;20005;-76
2022/01/04 11:06:43;;;;;;;0.30;0.10;;;;;;;6.01;68.32;98962.78;6212901;23;20031;-75
2022/01/04 11:09:10;;;;;;;0.30;0.10;;;;;;;6.25;68.54;98967.66;6214674;23;20001;-74
2022/01/04 11:11:36;;;;;;;0.00;0.00;;;;;;;6.65;67.15;98974.13;6207822;23;20011;-75
2022/01/04 11:14:29;;;;;;;0.35;0.20;;;;;;;6.92;66.61;98959.34;6209640;23;20487;-75
2022/01/04 11:16:57;;;;;;;0.20;0.20;;;;;;;7.50;64.67;98984.13;6189705;23;20043;-75
2022/01/04 11:19:32;;;;;;;0.10;0.10;;;;;;;7.97;63.51;98975.63;6213251;23;20631;-75
2022/01/04 11:22:09;;;;;;;;;;;;;;;;;;;;;
2022/01/04 11:24:47;;;;;;;0.10;0.10;;;;;;;9.05;61.20;98955.50;6213779;23;20490;-75
2022/01/04 11:27:13;;;;;;;2.78;0.10;;;;;;;9.08;60.01;98944.00;6212879;23;20011;-75
2022/01/04 11:29:43;;;;;;;0.63;0.10;;;;;;;8.86;59.83;98969.91;6212520;23;20009;-75
2022/01/04 11:32:23;;;;;;;0.20;0.15;;;;;;;8.52;60.27;98965.34;6214197;23;20024;-76
2022/01/04 11:35:07;;;;;;;;;;;;;;;;;;;;;
2022/01/04 11:37:33;;;;;;;1.05;0.10;;;;;;;8.06;60.08;98979.38;6212223;23;20084;-76
2022/01/04 11:40:08;;;;;;;0.10;0.10;;;;;;;7.76;59.72;98974.97;6213194;23;20047;-75
2022/01/04 11:43:08;;;;;;;;;;;;;;;;;;;;;
2022/01/04 11:45:47;;;;;;;0.22;0.08;;;;;;;7.49;60.63;98982.47;6212867;23;20083;-75
2022/01/04 11:48:36;;;;;;;1.02;0.10;;;;;;;7.34;61.40;98974.38;6214345;23;20005;-75
2022/01/04 11:51:07;;;;;;;0.88;0.10;;;;;;;7.36;60.60;98983.09;6214271;23;20064;-74
2022/01/04 11:54:18;;;;;;;3.83;0.13;;;;;;;7.51;59.96;99001.25;6215799;23;20004;-75
2022/01/04 11:57:30;;;;;;;1.10;0.30;;;;;;;7.34;59.55;98988.00;6090953;23;20003;-75
2022/01/04 12:00:25;;;;;;;0.20;0.20;;;;;;;7.02;57.26;98988.41;6202278;23;20004;-77
2022/01/04 12:03:21;;;;;;;0.00;0.00;;;;;;;6.98;57.85;98988.16;6210587;23;20000;-76
2022/01/04 12:06:02;;;;;;;0.08;0.00;;;;;;;7.06;58.20;99022.91;6213132;23;20084;-75
2022/01/04 12:09:15;;;;;;;;;;;;;;;;;;;;;
2022/01/04 12:12:05;;;;;;;0.15;0.10;;;;;;;6.80;58.41;99025.72;6211080;23;20080;-75
2022/01/04 12:18:17;;;;;;;;;;;;;;;;;;;;;
2022/01/04 12:21:31;;;;;;;0.55;0.22;;;;;;;6.70;60.38;99052.91;6213755;23;20020;-76
2022/01/04 12:24:26;;;;;;;0.43;0.15;;;;;;;6.70;60.47;99042.03;6214615;23;20036;-77
2022/01/04 12:27:40;;;;;;;;;;;;;;;;;;;;;
2022/01/04 12:30:31;;;;;;;0.20;0.20;;;;;;;7.12;60.92;99053.59;6211109;23;20071;-76
2022/01/04 12:36:41;;;;;;;1.02;0.30;;;;;;;7.21;60.85;99068.25;6169161;23;20025;-76
2022/01/04 12:39:42;;;;;;;;;;;;;;;;;;;;;
2022/01/04 12:42:19;;;;;;;0.20;0.20;;;;;;;6.94;61.85;99053.13;6210123;23;20083;-76
2022/01/04 12:45:17;;;;;;;0.28;0.20;;;;;;;7.07;61.80;99068.03;6210458;23;20373;-76
2022/01/04 12:47:54;;;;;;;0.82;0.43;;;;;;;7.03;62.16;99047.94;6210397;23;20001;-76
2022/01/04 12:50:25;;;;;;;0.22;0.22;;;;;;;7.05;61.75;99045.72;6208148;23;20009;-77
2022/01/04 12:53:27;;;;;;;;;;;;;;;;;;;;;
2022/01/04 12:56:18;;;;;;;1.17;0.30;;;;;;;7.12;62.29;99035.38;6212597;23;20085;-77
2022/01/04 12:58:44;;;;;;;5.93;0.30;;;;;;;7.19;61.89;99032.38;6159030;23;20059;-76
2022/01/04 13:01:24;;;;;;;;;;;;;;;;;;;;;